This is the latest recevied weather packets stored in our database for station/object W5HKR. If no packets are shown the sender has not sent any weather packets the latest 10 day(s).
| Time | Temp. | Humidity | Pressure | Rain* | Wind** | Luminosity | Snow |
|---|---|---|---|---|---|---|---|
| 1777396957 | 18.33° C | 91% | 990.6 hPa | 0 mm | - | - | - |
| 1777396708 | 18.33° C | 91% | 990.6 hPa | 0 mm | - | - | - |
| 1777396408 | 27.22° C | 80% | 984.8 hPa | 0 mm | - | - | - |
| 1777396107 | 27.22° C | 80% | 984.5 hPa | 0 mm | - | - | - |
| 1777395878 | 27.22° C | 81% | 984.6 hPa | 0 mm | - | - | - |
| 1777395807 | 27.22° C | 80% | 984.9 hPa | 0 mm | - | - | - |
| 1777395507 | 18.33° C | 91% | 990.6 hPa | 0 mm | - | - | - |
| 1777395206 | 18.33° C | 91% | 990.6 hPa | 0 mm | - | - | - |
| 1777394906 | 18.33° C | 91% | 990.6 hPa | 0 mm | - | - | - |
| 1777394798 | 27.22° C | 81% | 984.8 hPa | 0 mm | - | - | - |
| 1777394607 | 18.33° C | 91% | 990.6 hPa | 0 mm | - | - | - |
| 1777394007 | 18.33° C | 91% | 990.6 hPa | 0 mm | - | - | - |
| 1777393706 | 18.33° C | 91% | 990.6 hPa | 0 mm | - | - | - |
| 1777393406 | 27.22° C | 81% | 985 hPa | 0 mm | - | - | - |
| 1777392806 | 27.22° C | 82% | 985 hPa | 0 mm | - | - | - |
| 1777392639 | 26.67° C | 82% | 984.9 hPa | 0 mm | - | - | - |
| 1777392506 | 18.33° C | 91% | 990.6 hPa | 0 mm | - | - | - |
| 1777392206 | 18.33° C | 91% | 990.6 hPa | 0 mm | - | - | - |
| 1777392086 | 26.67° C | 84% | 985 hPa | 0 mm | - | - | - |
| 1777391906 | 26.67° C | 84% | 985 hPa | 0 mm | - | - | - |
| 1777391607 | 18.33° C | 91% | 990.6 hPa | 0 mm | - | - | - |
| 1777391558 | 18.33° C | 91% | 990.6 hPa | 0 mm | - | - | - |
| 1777391306 | 26.11° C | 85% | 984.8 hPa | 0 mm | - | - | - |
| 1777391007 | 26.11° C | 85% | 985 hPa | 0 mm | - | - | - |
| 1777390707 | 18.33° C | 91% | 990.6 hPa | 0 mm | - | - | - |
* Rain latest hour (hover to see other rain measurements)
** Current wind speed in m/s (hover to see current wind gust speed)